Time;durP1;ratioP1;P1;durP2;ratioP2;P2;SDS_P1;SDS_P2;PMS_P1;PMS_P2;Temp;Humidity;BMP_temperature;BMP_pressure;BME280_temperature;BME280_humidity;BME280_pressure;Samples;Min_cycle;Max_cycle;Signal;HPM_P1;HPM_P2
2022/12/28 00:01:17;;;;;;;8.80;8.40;;;;;;;2.10;100.00;101814.84;5012774;28;20104;-69
2022/12/28 00:03:44;;;;;;;8.77;8.38;;;;;;;2.06;100.00;101818.56;5012652;28;20026;-69
2022/12/28 00:06:11;;;;;;;8.75;8.35;;;;;;;1.96;100.00;101804.31;5012796;28;20033;-68
2022/12/28 00:08:37;;;;;;;8.50;8.10;;;;;;;1.89;100.00;101815.13;5012670;28;20390;-70
2022/12/28 00:11:05;;;;;;;9.23;8.73;;;;;;;1.89;100.00;101819.50;5011661;28;20022;-69
2022/12/28 00:13:32;;;;;;;9.23;8.73;;;;;;;1.91;100.00;101813.28;5012489;28;20045;-69
2022/12/28 00:16:04;;;;;;;8.70;8.30;;;;;;;2.05;100.00;101814.25;5012100;28;20057;-69
2022/12/28 00:18:33;;;;;;;8.90;8.50;;;;;;;2.04;100.00;101820.41;5012292;28;20033;-69
2022/12/28 00:21:00;;;;;;;9.38;8.88;;;;;;;2.16;100.00;101832.81;5012253;28;20018;-70
2022/12/28 00:23:26;;;;;;;9.30;8.82;;;;;;;2.25;100.00;101826.19;5012126;28;20030;-70
2022/12/28 00:25:52;;;;;;;8.90;8.50;;;;;;;2.30;100.00;101829.41;5010872;28;20552;-70
2022/12/28 00:28:18;;;;;;;9.45;8.95;;;;;;;2.19;100.00;101833.47;5011960;28;20117;-70
2022/12/28 00:30:44;;;;;;;8.75;8.35;;;;;;;2.13;100.00;101818.13;5011891;28;20105;-69
2022/12/28 00:33:09;;;;;;;8.98;8.57;;;;;;;2.19;100.00;101835.22;5011349;28;20026;-69
2022/12/28 00:35:35;;;;;;;8.73;8.32;;;;;;;2.12;100.00;101839.13;5012173;28;20029;-69
2022/12/28 00:38:00;;;;;;;8.90;8.50;;;;;;;2.18;100.00;101844.03;5012304;28;20056;-69
2022/12/28 00:40:26;;;;;;;8.82;8.43;;;;;;;2.25;100.00;101841.91;5012209;28;20030;-69
2022/12/28 00:42:51;;;;;;;9.13;8.68;;;;;;;2.20;100.00;101837.78;5013435;28;20064;-69
2022/12/28 00:45:17;;;;;;;8.93;8.52;;;;;;;2.29;100.00;101839.03;5010434;28;20030;-69
2022/12/28 00:47:42;;;;;;;8.80;8.40;;;;;;;2.29;100.00;101839.03;5011730;28;20481;-69
2022/12/28 00:50:08;;;;;;;8.40;8.00;;;;;;;2.18;100.00;101825.69;5010099;28;20040;-68
2022/12/28 00:52:34;;;;;;;8.95;8.55;;;;;;;2.28;100.00;101821.63;5011830;28;20540;-70
2022/12/28 00:54:59;;;;;;;8.80;8.40;;;;;;;2.34;100.00;101820.41;5011869;28;20058;-69
2022/12/28 00:57:25;;;;;;;8.98;8.57;;;;;;;2.26;100.00;101822.63;5012041;28;20105;-70
2022/12/28 00:59:50;;;;;;;9.02;8.63;;;;;;;2.26;100.00;101817.41;5011698;28;20033;-70
2022/12/28 01:02:16;;;;;;;8.88;8.48;;;;;;;2.21;100.00;101815.06;5011763;28;20045;-69
2022/12/28 01:04:41;;;;;;;9.38;8.88;;;;;;;2.17;100.00;101808.31;5011637;28;20037;-69
2022/12/28 01:07:06;;;;;;;8.98;8.57;;;;;;;2.08;100.00;101811.47;5011242;28;20104;-69
2022/12/28 01:09:32;;;;;;;9.13;8.70;;;;;;;2.08;100.00;101806.22;5011750;28;20030;-69
2022/12/28 01:11:57;;;;;;;8.70;8.30;;;;;;;2.09;100.00;101816.59;5011952;28;20026;-69
2022/12/28 01:14:23;;;;;;;8.90;8.50;;;;;;;2.04;100.00;101812.56;5011684;28;20057;-69
2022/12/28 01:16:48;;;;;;;8.85;8.45;;;;;;;2.03;100.00;101814.34;5011855;28;20033;-70
2022/12/28 01:19:18;;;;;;;9.02;8.63;;;;;;;2.10;100.00;101813.06;5011544;28;20037;-70
2022/12/28 01:21:48;;;;;;;9.05;8.65;;;;;;;2.09;100.00;101808.75;5011051;28;20037;-69
2022/12/28 01:24:14;;;;;;;9.27;8.77;;;;;;;2.05;100.00;101814.25;5011016;28;20041;-70
2022/12/28 01:26:39;;;;;;;9.52;9.02;;;;;;;2.07;100.00;101807.16;5011478;28;20022;-69
2022/12/28 01:29:05;;;;;;;8.40;8.00;;;;;;;1.97;100.00;101803.38;5011622;28;20095;-69
2022/12/28 01:31:30;;;;;;;8.85;8.45;;;;;;;1.90;100.00;101805.50;5011347;28;20064;-70
2022/12/28 01:33:56;;;;;;;9.45;8.95;;;;;;;1.75;100.00;101799.38;5011650;28;20044;-70
2022/12/28 01:36:24;;;;;;;9.38;8.88;;;;;;;1.93;100.00;101800.94;5011590;28;20061;-68
2022/12/28 01:38:55;;;;;;;9.52;9.02;;;;;;;1.76;100.00;101806.28;5011625;28;20030;-69
2022/12/28 01:41:22;;;;;;;8.98;8.57;;;;;;;1.73;100.00;101795.16;5010120;28;20072;-69
2022/12/28 01:43:53;;;;;;;9.98;9.45;;;;;;;1.74;100.00;101792.44;5011381;28;20485;-69
2022/12/28 01:46:43;;;;;;;9.43;8.93;;;;;;;1.67;100.00;101810.25;5011412;28;20022;-69
2022/12/28 01:49:17;;;;;;;8.93;8.52;;;;;;;1.76;100.00;101814.13;5003709;28;20428;-69
2022/12/28 01:51:46;;;;;;;;;;;;;;;1.74;100.00;101821.22;5009343;28;20373;-69
2022/12/28 01:54:12;;;;;;;9.18;8.70;;;;;;;1.73;100.00;101822.16;5012060;28;19913;-69
2022/12/28 01:56:39;;;;;;;8.82;8.43;;;;;;;1.64;100.00;101810.44;5011014;28;20560;-69
2022/12/28 01:59:04;;;;;;;9.00;8.60;;;;;;;1.59;100.00;101815.06;5012708;28;20108;-69
2022/12/28 02:01:30;;;;;;;8.95;8.55;;;;;;;1.45;100.00;101812.38;5015165;28;20067;-69
2022/12/28 02:03:56;;;;;;;9.50;9.00;;;;;;;1.47;100.00;101810.53;5014900;28;20060;-69
2022/12/28 02:06:22;;;;;;;9.30;8.90;;;;;;;1.52;100.00;101820.72;5015022;28;20076;-69
2022/12/28 02:09:02;;;;;;;9.05;8.65;;;;;;;1.51;100.00;101819.88;5014585;28;20049;-69
2022/12/28 02:11:28;;;;;;;9.65;9.15;;;;;;;1.41;100.00;101818.72;5014078;28;20535;-69
2022/12/28 02:13:54;;;;;;;8.95;8.55;;;;;;;1.36;100.00;101821.56;5014276;28;20033;-69
2022/12/28 02:16:20;;;;;;;9.00;8.60;;;;;;;1.32;100.00;101813.97;5014379;28;20114;-69
2022/12/28 02:18:47;;;;;;;9.00;8.60;;;;;;;1.34;100.00;101825.22;5014312;28;20109;-69
2022/12/28 02:21:45;;;;;;;8.70;8.30;;;;;;;1.32;100.00;101833.16;5014676;28;20052;-69
2022/12/28 02:24:19;;;;;;;9.05;8.65;;;;;;;1.22;100.00;101838.94;5013837;28;20489;-68
2022/12/28 02:26:59;;;;;;;9.10;8.70;;;;;;;1.15;100.00;101842.81;5014261;28;20460;-68
2022/12/28 02:29:24;;;;;;;9.38;8.93;;;;;;;1.20;100.00;101838.19;5014557;28;20025;-69
2022/12/28 02:31:59;;;;;;;8.75;8.35;;;;;;;1.18;100.00;101847.88;5013847;28;20030;-69
2022/12/28 02:35:09;;;;;;;9.27;8.77;;;;;;;1.14;100.00;101841.97;5013469;28;20033;-69
2022/12/28 02:37:45;;;;;;;8.80;8.40;;;;;;;1.12;100.00;101849.03;5011007;28;20120;-70
2022/12/28 02:40:16;;;;;;;9.52;9.02;;;;;;;1.07;100.00;101844.06;5012801;28;20021;-68
2022/12/28 02:42:43;;;;;;;9.20;8.70;;;;;;;1.04;100.00;101844.22;5014097;28;20111;-69
2022/12/28 02:51:18;;;;;;;9.25;8.75;;;;;;;0.97;100.00;101850.69;5013451;28;20507;-69
2022/12/28 02:54:08;;;;;;;9.35;8.85;;;;;;;0.98;100.00;101856.75;5013329;28;20481;-69
2022/12/28 02:56:58;;;;;;;8.93;8.52;;;;;;;0.86;100.00;101852.16;5011772;28;20137;-70
2022/12/28 02:59:44;;;;;;;9.07;8.68;;;;;;;0.89;100.00;101854.63;5014015;28;20048;-69
2022/12/28 03:02:18;;;;;;;9.43;8.93;;;;;;;0.88;100.00;101853.75;5013654;28;20053;-69
2022/12/28 03:04:59;;;;;;;9.10;8.70;;;;;;;0.80;100.00;101859.38;5012887;28;20073;-69
2022/12/28 03:08:18;;;;;;;9.13;8.68;;;;;;;0.54;100.00;101852.06;5011924;28;20030;-69
2022/12/28 03:11:07;;;;;;;9.18;8.70;;;;;;;0.66;100.00;101854.06;5007010;28;20524;-69
2022/12/28 03:13:41;;;;;;;9.48;9.00;;;;;;;0.57;100.00;101854.50;5012080;28;20021;-69
2022/12/28 03:16:12;;;;;;;8.80;8.40;;;;;;;0.53;100.00;101863.44;5013487;28;20022;-69
2022/12/28 03:32:46;;;;;;;9.95;9.45;;;;;;;0.27;100.00;101869.94;5010348;28;20420;-69
2022/12/28 03:35:12;;;;;;;10.10;9.52;;;;;;;0.42;100.00;101871.78;5010899;28;20030;-69
2022/12/28 03:37:46;;;;;;;9.57;9.07;;;;;;;0.36;100.00;101874.69;5013265;28;20079;-69
2022/12/28 03:40:32;;;;;;;9.43;8.93;;;;;;;0.38;100.00;101875.47;5011152;28;20025;-69
2022/12/28 03:46:01;;;;;;;8.90;8.50;;;;;;;0.00;100.00;101887.78;5012146;28;20125;-69
2022/12/28 03:48:30;;;;;;;9.00;8.60;;;;;;;-0.06;100.00;101891.53;5011357;28;20396;-69
2022/12/28 03:50:55;;;;;;;9.07;8.68;;;;;;;0.10;100.00;101885.56;5012769;28;20033;-69
2022/12/28 03:53:30;;;;;;;9.48;9.00;;;;;;;0.15;100.00;101886.22;5012604;28;20017;-69
2022/12/28 03:56:13;;;;;;;9.15;8.75;;;;;;;0.09;100.00;101900.38;5011760;28;20501;-69
2022/12/28 03:58:39;;;;;;;9.63;9.13;;;;;;;0.13;100.00;101891.47;5011803;28;20033;-69
2022/12/28 04:01:05;;;;;;;8.63;8.23;;;;;;;0.06;100.00;101887.47;5012796;28;20518;-69
2022/12/28 04:03:31;;;;;;;9.45;8.95;;;;;;;-0.04;100.00;101888.84;5012338;28;20109;-70
2022/12/28 04:05:56;;;;;;;9.55;9.05;;;;;;;0.15;100.00;101902.72;5011025;28;20531;-69
2022/12/28 04:08:22;;;;;;;9.02;8.63;;;;;;;0.13;100.00;101903.69;5012651;28;20041;-69
2022/12/28 04:10:48;;;;;;;9.43;8.93;;;;;;;0.10;100.00;101906.44;5012260;28;20068;-68
2022/12/28 04:13:13;;;;;;;9.65;9.15;;;;;;;0.17;100.00;101908.69;5012334;28;20489;-68
2022/12/28 04:15:38;;;;;;;9.63;9.13;;;;;;;0.12;100.00;101904.59;5012390;28;20080;-69
2022/12/28 04:18:04;;;;;;;8.88;8.48;;;;;;;0.06;100.00;101908.34;5012502;28;20025;-69
2022/12/28 04:20:30;;;;;;;8.65;8.25;;;;;;;0.14;100.00;101910.59;5010952;28;20137;-70
2022/12/28 04:22:56;;;;;;;9.00;8.60;;;;;;;0.01;100.00;101918.19;5012207;28;20025;-69
2022/12/28 04:25:21;;;;;;;9.10;8.70;;;;;;;-0.01;100.00;101917.38;5012305;28;20390;-69
2022/12/28 04:27:47;;;;;;;9.45;8.95;;;;;;;0.04;100.00;101919.78;5012231;28;20029;-69
2022/12/28 04:30:12;;;;;;;8.73;8.32;;;;;;;-0.08;100.00;101924.66;5009808;28;20037;-69
2022/12/28 04:32:38;;;;;;;9.07;8.68;;;;;;;-0.07;100.00;101920.31;5010689;28;20104;-69
2022/12/28 04:35:04;;;;;;;9.02;8.60;;;;;;;-0.03;100.00;101930.50;5010327;28;20022;-68
2022/12/28 04:37:29;;;;;;;9.00;8.60;;;;;;;0.05;100.00;101942.34;5012481;28;20540;-69
2022/12/28 04:39:55;;;;;;;8.68;8.27;;;;;;;0.22;100.00;101938.03;5012045;28;20022;-68
2022/12/28 04:42:20;;;;;;;9.38;8.88;;;;;;;0.26;100.00;101938.72;5012212;28;20361;-69
2022/12/28 04:44:46;;;;;;;9.00;8.60;;;;;;;0.33;100.00;101947.94;5011902;28;20033;-70
2022/12/28 04:47:12;;;;;;;8.88;8.48;;;;;;;0.35;100.00;101945.25;5011320;28;20061;-70
2022/12/28 04:49:38;;;;;;;9.23;8.75;;;;;;;0.34;100.00;101935.72;5009977;28;20029;-70
2022/12/28 04:52:03;;;;;;;9.55;9.05;;;;;;;0.33;100.00;101942.72;5014318;28;20075;-69
2022/12/28 04:54:29;;;;;;;9.02;8.63;;;;;;;0.39;100.00;101946.81;5010842;28;20401;-69
2022/12/28 04:56:54;;;;;;;8.70;8.30;;;;;;;0.32;100.00;101945.41;5011890;28;20519;-69
2022/12/28 04:59:20;;;;;;;8.90;8.50;;;;;;;0.31;100.00;101951.56;5011767;28;20037;-70
2022/12/28 05:01:45;;;;;;;9.77;9.27;;;;;;;0.36;100.00;101957.38;5011501;28;20102;-70
2022/12/28 05:04:11;;;;;;;10.13;9.52;;;;;;;0.39;100.00;101958.09;5011038;28;20026;-69
2022/12/28 05:06:36;;;;;;;9.48;8.98;;;;;;;0.27;100.00;101949.06;5010230;28;20114;-69
2022/12/28 05:09:02;;;;;;;8.80;8.40;;;;;;;0.23;100.00;101942.31;5011663;28;20034;-69
2022/12/28 05:11:28;;;;;;;9.50;9.00;;;;;;;0.20;100.00;101955.50;5011999;28;20078;-69
2022/12/28 05:13:54;;;;;;;9.07;8.63;;;;;;;0.21;100.00;101953.72;5011730;28;20034;-69
2022/12/28 05:16:22;;;;;;;8.80;8.40;;;;;;;0.25;100.00;101963.13;5011504;28;20083;-69
2022/12/28 05:18:48;;;;;;;9.52;9.02;;;;;;;0.21;100.00;101953.72;5010840;28;20064;-69
2022/12/28 05:21:25;;;;;;;8.88;8.38;;;;;;;0.19;100.00;101958.19;5011054;28;20167;-69
2022/12/28 05:23:51;;;;;;;9.95;9.45;;;;;;;0.18;100.00;101964.34;5011551;28;20026;-69
2022/12/28 05:26:20;;;;;;;10.00;9.45;;;;;;;0.12;100.00;101969.84;5010483;28;20112;-69
2022/12/28 05:28:46;;;;;;;9.63;9.13;;;;;;;0.18;100.00;101964.34;5011295;28;20030;-69
2022/12/28 05:31:16;;;;;;;9.32;8.93;;;;;;;0.21;100.00;101977.22;5010750;28;20025;-69
2022/12/28 05:33:42;;;;;;;9.60;9.10;;;;;;;0.24;100.00;101971.88;5013786;28;20017;-69
2022/12/28 05:36:08;;;;;;;9.55;9.05;;;;;;;0.30;100.00;101978.56;5015289;28;20040;-69
2022/12/28 05:38:34;;;;;;;9.40;8.90;;;;;;;0.31;100.00;101978.50;5014254;28;20404;-69
2022/12/28 05:41:08;;;;;;;9.65;9.15;;;;;;;0.35;100.00;101979.19;5015208;28;20115;-70
2022/12/28 05:43:34;;;;;;;9.82;9.32;;;;;;;0.29;100.00;101988.13;5014294;28;20037;-68
2022/12/28 05:46:04;;;;;;;9.52;9.02;;;;;;;0.42;100.00;101985.81;5015624;28;20057;-69
2022/12/28 05:48:34;;;;;;;9.52;9.02;;;;;;;0.53;100.00;101991.38;5015035;28;20080;-69
2022/12/28 05:51:05;;;;;;;9.68;9.18;;;;;;;0.58;100.00;101997.19;5015016;28;20029;-68
2022/12/28 05:53:31;;;;;;;9.25;8.75;;;;;;;0.60;100.00;101995.38;5029237;28;20018;-69
2022/12/28 05:56:04;;;;;;;9.88;9.38;;;;;;;0.65;100.00;101993.34;5014539;28;20053;-69
2022/12/28 05:58:30;;;;;;;9.40;8.90;;;;;;;0.64;100.00;101983.00;5014052;28;20048;-70
2022/12/28 06:01:08;;;;;;;9.18;8.68;;;;;;;0.78;100.00;101997.06;5014987;28;20022;-69
2022/12/28 06:03:34;;;;;;;9.75;9.25;;;;;;;0.91;100.00;101991.25;5012915;28;20028;-69
2022/12/28 06:06:12;;;;;;;9.43;8.93;;;;;;;0.90;100.00;101990.41;5014839;28;20025;-68
2022/12/28 06:08:38;;;;;;;9.15;8.68;;;;;;;0.87;100.00;101984.47;5014673;28;20036;-69
2022/12/28 06:11:06;;;;;;;9.57;9.07;;;;;;;1.07;100.00;101997.38;5014603;28;20034;-70
2022/12/28 06:13:32;;;;;;;9.00;8.60;;;;;;;1.12;100.00;102007.63;5012624;28;20040;-68
2022/12/28 06:15:58;;;;;;;8.90;8.50;;;;;;;1.12;100.00;102011.06;5014387;28;20030;-68
2022/12/28 06:18:27;;;;;;;8.90;8.50;;;;;;;1.20;100.00;102021.16;5014554;28;20029;-69
2022/12/28 06:20:53;;;;;;;8.90;8.50;;;;;;;1.20;100.00;102008.91;5014586;28;20453;-69
2022/12/28 06:23:19;;;;;;;8.60;8.20;;;;;;;1.27;100.00;102020.75;5012690;28;20060;-69
2022/12/28 06:25:44;;;;;;;8.88;8.48;;;;;;;1.18;100.00;102012.53;5013896;28;20061;-69
2022/12/28 06:28:10;;;;;;;8.90;8.50;;;;;;;1.05;100.00;102012.31;5014123;28;20489;-70
2022/12/28 06:30:35;;;;;;;9.32;8.82;;;;;;;1.27;100.00;102028.59;5013751;28;20064;-70
2022/12/28 06:33:01;;;;;;;8.60;8.20;;;;;;;1.35;100.00;102029.03;5014038;28;20065;-70
2022/12/28 06:35:26;;;;;;;9.13;8.70;;;;;;;1.39;100.00;102029.72;5014284;28;20061;-69
2022/12/28 06:37:51;;;;;;;9.02;8.63;;;;;;;1.26;100.00;102039.97;5012519;28;20029;-70
2022/12/28 06:40:17;;;;;;;8.95;8.55;;;;;;;1.43;100.00;102036.50;5012658;28;20037;-69
2022/12/28 06:42:42;;;;;;;8.77;8.38;;;;;;;1.46;100.00;102045.94;5014892;28;20332;-70
2022/12/28 06:45:08;;;;;;;8.55;8.15;;;;;;;1.57;100.00;102030.56;5013613;28;20370;-70
2022/12/28 06:47:35;;;;;;;9.38;8.88;;;;;;;1.59;100.00;102042.63;5013384;28;20040;-69
2022/12/28 06:50:02;;;;;;;8.68;8.27;;;;;;;1.79;100.00;102043.34;5009249;28;20058;-69
2022/12/28 06:52:27;;;;;;;9.23;8.77;;;;;;;1.86;100.00;102037.72;5013829;28;20425;-69
2022/12/28 06:54:53;;;;;;;9.40;8.90;;;;;;;1.96;100.00;102042.47;5011834;28;20040;-69
2022/12/28 06:57:18;;;;;;;9.48;8.98;;;;;;;1.73;100.00;102038.44;5013793;28;20385;-69
2022/12/28 06:59:44;;;;;;;9.73;9.23;;;;;;;1.92;100.00;102052.25;5013622;28;20056;-69
2022/12/28 07:02:09;;;;;;;9.00;8.60;;;;;;;1.96;100.00;102056.38;5013795;28;20021;-69
2022/12/28 07:04:35;;;;;;;9.90;9.40;;;;;;;1.93;100.00;102057.41;5012855;28;20026;-69
2022/12/28 07:07:00;;;;;;;9.77;9.27;;;;;;;2.00;100.00;102051.84;5013530;28;20022;-69
2022/12/28 07:09:26;;;;;;;8.90;8.50;;;;;;;2.07;100.00;102072.38;5011278;28;20036;-69
2022/12/28 07:11:51;;;;;;;8.57;8.18;;;;;;;2.11;100.00;102067.81;5013503;28;20033;-69
2022/12/28 07:14:17;;;;;;;9.40;8.90;;;;;;;2.47;100.00;102072.81;5013580;28;20022;-69
2022/12/28 07:16:43;;;;;;;8.95;8.55;;;;;;;2.61;100.00;102072.91;5011918;28;20042;-69
2022/12/28 07:19:09;;;;;;;9.95;9.45;;;;;;;2.57;100.00;102073.16;5012742;28;20026;-70
2022/12/28 07:21:37;;;;;;;9.45;8.95;;;;;;;2.49;100.00;102065.72;5012217;28;20038;-70
2022/12/28 07:24:04;;;;;;;9.50;9.00;;;;;;;2.56;100.00;102063.59;5008765;28;20026;-68
2022/12/28 07:26:32;;;;;;;10.20;9.65;;;;;;;2.81;100.00;102061.31;5013281;28;20060;-69
2022/12/28 07:29:00;;;;;;;9.35;8.88;;;;;;;2.60;100.00;102062.50;5013418;28;20623;-69
2022/12/28 07:31:31;;;;;;;9.00;8.60;;;;;;;3.09;100.00;102063.22;5012792;28;20030;-69
2022/12/28 07:33:59;;;;;;;9.15;8.75;;;;;;;3.54;100.00;102066.69;5012916;28;20026;-69
2022/12/28 07:36:26;;;;;;;9.20;8.80;;;;;;;3.27;100.00;102067.38;5012300;28;20397;-69
2022/12/28 07:38:51;;;;;;;8.90;8.50;;;;;;;3.39;100.00;102055.31;5012654;28;20485;-69
2022/12/28 07:41:26;;;;;;;9.40;8.90;;;;;;;3.67;100.00;102066.78;5014082;28;20063;-69
2022/12/28 07:43:52;;;;;;;8.90;8.50;;;;;;;3.76;100.00;102051.34;5013000;28;20149;-69
2022/12/28 07:46:20;;;;;;;9.10;8.70;;;;;;;3.91;100.00;102061.84;5012025;28;20108;-69
2022/12/28 07:48:46;;;;;;;9.13;8.73;;;;;;;4.32;100.00;102049.56;5012849;28;20026;-69
2022/12/28 07:51:18;;;;;;;9.38;8.90;;;;;;;4.81;100.00;102056.97;5012448;28;20029;-69
2022/12/28 07:53:45;;;;;;;9.77;9.27;;;;;;;4.47;100.00;102046.91;5010416;28;20515;-69
2022/12/28 07:56:12;;;;;;;9.30;8.80;;;;;;;4.93;100.00;102050.91;5010433;28;20050;-69
2022/12/28 07:58:38;;;;;;;9.43;8.93;;;;;;;5.38;100.00;102054.03;5012713;28;20083;-69
2022/12/28 08:01:04;;;;;;;9.00;8.60;;;;;;;4.75;100.00;102056.50;5012795;28;20030;-70
2022/12/28 08:03:30;;;;;;;8.73;8.32;;;;;;;4.97;100.00;102051.53;5012751;28;20041;-69
2022/12/28 08:06:01;;;;;;;8.80;8.40;;;;;;;5.35;100.00;102051.59;5011306;28;20628;-70
2022/12/28 08:08:27;;;;;;;9.35;8.90;;;;;;;7.56;100.00;102057.66;5012779;28;20065;-70
2022/12/28 08:10:52;;;;;;;9.18;8.77;;;;;;;5.86;100.00;102063.94;5012249;28;20107;-70
2022/12/28 08:13:18;;;;;;;8.60;8.20;;;;;;;5.55;100.00;102060.78;5012170;28;20036;-70
2022/12/28 08:15:53;;;;;;;8.90;8.50;;;;;;;5.82;100.00;102058.06;5010676;28;20030;-68
2022/12/28 08:18:19;;;;;;;9.05;8.65;;;;;;;5.79;100.00;102060.88;5010136;28;20025;-69
2022/12/28 08:20:44;;;;;;;9.25;8.85;;;;;;;5.49;100.00;102059.41;5012169;28;20112;-69
2022/12/28 08:23:10;;;;;;;9.52;9.05;;;;;;;5.82;100.00;102068.59;5012336;28;20061;-69
2022/12/28 08:25:35;;;;;;;9.52;9.07;;;;;;;6.36;100.00;102060.41;5012110;28;20445;-68
2022/12/28 08:28:01;;;;;;;10.00;9.50;;;;;;;6.41;100.00;102074.13;5011371;28;20172;-70
2022/12/28 08:30:26;;;;;;;9.00;8.60;;;;;;;7.06;100.00;102071.13;5011937;28;20131;-68
2022/12/28 08:32:51;;;;;;;9.07;8.68;;;;;;;8.10;100.00;102070.22;5010867;28;20021;-68
2022/12/28 08:35:17;;;;;;;9.70;9.20;;;;;;;7.45;100.00;102071.69;5012103;28;20017;-69
2022/12/28 08:37:42;;;;;;;9.27;8.88;;;;;;;7.39;100.00;102056.31;5011685;28;20026;-70
2022/12/28 08:40:08;;;;;;;8.70;8.30;;;;;;;7.26;100.00;102053.75;5012132;28;20120;-70
2022/12/28 08:42:34;;;;;;;8.98;8.57;;;;;;;7.26;100.00;102059.03;5013253;28;20034;-70
2022/12/28 08:44:59;;;;;;;9.52;9.10;;;;;;;8.27;100.00;102046.75;5011192;28;20029;-70
2022/12/28 08:47:25;;;;;;;9.68;9.20;;;;;;;7.96;100.00;102045.72;5010939;28;20029;-69
2022/12/28 08:49:50;;;;;;;9.13;8.73;;;;;;;7.77;100.00;102053.38;5011594;28;20030;-70
2022/12/28 08:52:16;;;;;;;9.48;9.07;;;;;;;7.51;100.00;102050.13;5011896;28;20693;-69
2022/12/28 08:54:41;;;;;;;9.95;9.45;;;;;;;8.08;100.00;102032.47;5011811;28;20030;-68
2022/12/28 08:57:06;;;;;;;10.68;10.18;;;;;;;8.09;100.00;102029.72;5011417;28;20073;-70
2022/12/28 08:59:32;;;;;;;10.40;9.90;;;;;;;8.54;100.00;102045.53;5011631;28;20030;-68
2022/12/28 09:01:57;;;;;;;9.43;9.02;;;;;;;7.99;100.00;102050.75;5009791;28;20025;-69
2022/12/28 09:04:23;;;;;;;9.57;9.15;;;;;;;7.82;100.00;102043.31;5011685;28;20061;-69
2022/12/28 09:06:48;;;;;;;10.73;10.20;;;;;;;8.75;100.00;102040.31;5011567;28;20030;-69
2022/12/28 09:09:16;;;;;;;9.55;9.15;;;;;;;11.06;96.58;102039.63;5018046;28;20041;-68
2022/12/28 09:11:42;;;;;;;10.02;9.52;;;;;;;12.51;75.39;102038.31;5015310;28;20033;-70
2022/12/28 09:14:10;;;;;;;10.23;9.73;;;;;;;10.18;88.71;102030.69;5018224;28;20097;-70
2022/12/28 09:16:37;;;;;;;10.25;9.75;;;;;;;15.13;65.44;102043.06;5017977;28;20032;-71
2022/12/28 09:19:05;;;;;;;10.90;10.40;;;;;;;14.47;56.85;102041.31;5016493;28;20032;-70
2022/12/28 09:21:33;;;;;;;10.82;10.32;;;;;;;12.23;65.00;102043.66;5017025;28;20389;-70
2022/12/28 09:24:00;;;;;;;10.00;9.60;;;;;;;10.40;75.15;102044.75;5018094;28;20034;-70
2022/12/28 09:26:28;;;;;;;10.50;10.00;;;;;;;12.96;63.73;102044.41;5018207;28;20108;-67
2022/12/28 09:28:59;;;;;;;10.30;9.80;;;;;;;10.78;69.91;102043.94;5016530;28;20038;-70
2022/12/28 09:31:27;;;;;;;10.82;10.32;;;;;;;10.10;76.33;102029.69;5017758;28;20034;-69
2022/12/28 09:34:00;;;;;;;12.15;11.55;;;;;;;10.05;78.29;102032.75;5016461;28;20057;-70
2022/12/28 09:36:37;;;;;;;11.23;10.73;;;;;;;10.18;80.47;102030.69;5017237;28;20108;-69
2022/12/28 09:39:06;;;;;;;11.50;10.90;;;;;;;9.57;84.84;102035.19;5017759;28;20024;-69
2022/12/28 09:41:47;;;;;;;11.90;11.30;;;;;;;9.49;85.02;102029.72;5017811;28;20036;-69
2022/12/28 09:44:15;;;;;;;10.57;10.07;;;;;;;9.28;86.58;102035.00;5015389;28;20033;-69
2022/12/28 09:47:11;;;;;;;11.45;10.88;;;;;;;8.86;88.77;102024.38;5019144;28;20030;-70
2022/12/28 09:49:45;;;;;;;11.43;10.82;;;;;;;8.67;92.07;102035.66;5011868;28;20046;-70
2022/12/28 09:52:13;;;;;;;11.00;10.50;;;;;;;8.58;95.39;102020.50;5017851;28;20087;-69
2022/12/28 09:54:39;;;;;;;11.57;10.98;;;;;;;8.21;96.13;102026.09;5015961;28;20022;-69
2022/12/28 09:57:15;;;;;;;11.73;11.13;;;;;;;8.57;95.00;102013.53;5014614;28;20038;-70
2022/12/28 09:59:42;;;;;;;10.20;9.70;;;;;;;7.90;96.27;102008.34;5015853;28;20026;-69
2022/12/28 10:02:25;;;;;;;10.52;10.02;;;;;;;8.51;97.69;102014.88;5017808;28;20034;-69
2022/12/28 10:04:51;;;;;;;10.20;9.70;;;;;;;8.02;97.93;102010.03;5016125;28;20023;-69
2022/12/28 10:07:17;;;;;;;11.05;10.48;;;;;;;8.17;98.43;102013.25;5014854;28;20033;-69
2022/12/28 10:09:43;;;;;;;10.65;10.15;;;;;;;7.56;100.00;102010.13;5016207;28;20026;-70
2022/12/28 10:12:23;;;;;;;10.48;9.98;;;;;;;7.90;100.00;102001.25;5014653;28;20029;-70
2022/12/28 10:14:50;;;;;;;10.30;9.80;;;;;;;7.99;100.00;102003.16;5017437;28;20022;-69
2022/12/28 10:17:19;;;;;;;11.05;10.45;;;;;;;7.90;100.00;102001.25;5017490;28;20037;-69
2022/12/28 10:19:46;;;;;;;10.70;10.20;;;;;;;7.78;100.00;102006.66;5014366;28;20058;-69
2022/12/28 10:22:16;;;;;;;10.45;9.95;;;;;;;7.54;100.00;102004.13;5014212;28;20049;-69
2022/12/28 10:24:43;;;;;;;11.38;10.77;;;;;;;7.77;100.00;102011.09;5012583;28;20389;-69
2022/12/28 10:27:29;;;;;;;11.35;10.75;;;;;;;7.62;100.00;102025.50;5013559;28;20103;-69
2022/12/28 10:29:55;;;;;;;10.10;9.60;;;;;;;7.70;100.00;102021.31;5011894;28;20477;-70
2022/12/28 10:32:20;;;;;;;10.43;9.93;;;;;;;7.40;100.00;102019.25;5013884;28;20034;-69
2022/12/28 10:34:58;;;;;;;11.23;10.63;;;;;;;7.29;100.00;102011.31;5012775;28;20018;-69
2022/12/28 10:37:26;;;;;;;11.02;10.43;;;;;;;7.43;100.00;102005.81;5013706;28;20040;-70
2022/12/28 10:40:06;;;;;;;11.10;10.50;;;;;;;7.48;100.00;102008.94;5013227;28;20533;-70
2022/12/28 10:42:39;;;;;;;10.95;10.35;;;;;;;7.39;100.00;102006.16;5011786;28;20112;-70
2022/12/28 10:45:15;;;;;;;10.75;10.20;;;;;;;7.39;100.00;101996.44;5011561;28;20026;-69
2022/12/28 10:47:45;;;;;;;11.30;10.70;;;;;;;7.62;100.00;101996.47;5013910;28;20083;-70
2022/12/28 10:50:36;;;;;;;10.50;10.00;;;;;;;7.35;100.00;101996.81;5011853;28;20022;-70
2022/12/28 10:53:01;;;;;;;11.07;10.48;;;;;;;7.26;100.00;101981.66;5012379;28;20018;-70
2022/12/28 10:55:33;;;;;;;10.48;9.98;;;;;;;7.21;100.00;101979.38;5013753;28;20037;-70
2022/12/28 10:58:34;;;;;;;10.23;9.73;;;;;;;7.55;100.00;101974.97;5013628;28;20391;-69
2022/12/28 11:01:05;;;;;;;10.38;9.88;;;;;;;7.40;100.00;101977.00;4952862;29;20031;-71
2022/12/28 11:03:34;;;;;;;10.40;9.90;;;;;;;7.56;100.00;101973.16;5002532;28;20040;-68
2022/12/28 11:06:17;;;;;;;10.43;9.93;;;;;;;7.49;100.00;101975.44;5013943;28;20485;-68
2022/12/28 11:08:57;;;;;;;10.70;10.20;;;;;;;7.34;99.44;101958.97;5011881;28;20029;-70
2022/12/28 11:11:24;;;;;;;12.02;11.32;;;;;;;7.45;98.46;101974.84;5011303;28;20034;-70
2022/12/28 11:14:01;;;;;;;10.30;9.80;;;;;;;7.30;97.94;101969.91;5008921;28;20022;-69
2022/12/28 11:16:28;;;;;;;11.10;10.50;;;;;;;7.29;98.83;101966.44;5013611;28;20029;-68
2022/12/28 11:18:54;;;;;;;9.90;9.40;;;;;;;7.46;97.80;101962.50;5012800;28;20072;-69
2022/12/28 11:21:21;;;;;;;10.18;9.68;;;;;;;7.45;97.77;101960.81;5012465;28;20646;-69
2022/12/28 11:23:50;;;;;;;10.85;10.27;;;;;;;7.55;96.74;101958.28;5013280;28;20034;-69
2022/12/28 11:26:17;;;;;;;10.20;9.70;;;;;;;7.64;95.80;101963.72;5013227;28;20018;-68
2022/12/28 11:28:44;;;;;;;10.50;10.00;;;;;;;7.58;94.51;101966.00;5012832;28;20032;-70
2022/12/28 11:31:20;;;;;;;10.20;9.70;;;;;;;7.52;95.15;101954.09;5012822;28;20036;-70
2022/12/28 11:33:50;;;;;;;11.05;10.45;;;;;;;7.45;94.88;101960.81;5010669;28;20028;-68
2022/12/28 11:36:19;;;;;;;10.20;9.70;;;;;;;7.63;92.64;101959.34;5012163;28;20087;-69
2022/12/28 11:38:49;;;;;;;11.23;10.63;;;;;;;7.62;91.41;101948.91;5012579;28;20121;-69
2022/12/28 11:41:29;;;;;;;10.05;9.55;;;;;;;7.62;91.49;101951.56;5012794;28;20108;-69
2022/12/28 11:43:57;;;;;;;10.93;10.32;;;;;;;7.50;91.02;101948.09;5012648;28;20025;-69
2022/12/28 11:46:23;;;;;;;10.50;10.00;;;;;;;7.69;83.97;101950.13;5012558;28;20058;-70
2022/12/28 11:49:00;;;;;;;11.63;11.02;;;;;;;7.48;78.00;101957.91;5009712;28;20121;-70
2022/12/28 11:51:29;;;;;;;10.40;9.90;;;;;;;7.65;79.52;101959.25;5025993;28;20041;-69
2022/12/28 11:54:01;;;;;;;11.45;10.85;;;;;;;7.61;79.44;101945.44;5007414;28;20105;-69